Time;durP1;ratioP1;P1;durP2;ratioP2;P2;SDS_P1;SDS_P2;PMS_P1;PMS_P2;Temp;Humidity;BMP_temperature;BMP_pressure;BME280_temperature;BME280_humidity;BME280_pressure;Samples;Min_cycle;Max_cycle;Signal;HPM_P1;HPM_P2
2022/05/04 00:01:32;;;;;;;28.30;15.88;;;11.10;94.90;;;;;;4891132;29;20078;-69
2022/05/04 00:03:58;;;;;;;30.35;17.90;;;11.10;94.90;;;;;;4902504;29;20028;-70
2022/05/04 00:06:24;;;;;;;31.52;17.15;;;11.00;94.90;;;;;;4904463;29;20068;-70
2022/05/04 00:08:50;;;;;;;32.80;16.38;;;11.00;94.40;;;;;;4902902;29;20033;-70
2022/05/04 00:11:15;;;;;;;35.20;17.02;;;11.00;94.50;;;;;;4898595;29;20115;-70
2022/05/04 00:13:41;;;;;;;29.90;16.52;;;10.90;94.60;;;;;;4898476;29;20389;-69
2022/05/04 00:16:07;;;;;;;27.55;16.33;;;10.90;94.70;;;;;;4892399;29;20042;-70
2022/05/04 00:18:33;;;;;;;26.45;14.88;;;10.90;94.70;;;;;;4902651;29;20427;-70
2022/05/04 00:20:58;;;;;;;27.67;16.92;;;10.90;94.60;;;;;;4903957;29;20051;-70
2022/05/04 00:23:25;;;;;;;26.92;15.63;;;10.90;94.70;;;;;;4907293;29;20040;-70
2022/05/04 00:25:51;;;;;;;26.70;14.30;;;11.00;94.60;;;;;;4920878;29;20044;-69
2022/05/04 00:28:17;;;;;;;28.55;16.13;;;10.90;94.40;;;;;;4907107;29;20043;-70
2022/05/04 00:30:43;;;;;;;26.80;17.08;;;11.00;94.10;;;;;;4898813;29;20032;-69
2022/05/04 00:33:08;;;;;;;30.20;17.55;;;10.90;94.00;;;;;;4893750;29;20043;-69
2022/05/04 00:35:34;;;;;;;25.10;15.07;;;10.90;94.20;;;;;;4905260;29;20036;-70
2022/05/04 00:38:00;;;;;;;28.20;16.73;;;11.00;94.20;;;;;;4907357;29;20495;-70
2022/05/04 00:40:26;;;;;;;25.95;16.30;;;11.00;94.00;;;;;;4897561;29;20048;-70
2022/05/04 00:42:52;;;;;;;25.13;16.27;;;11.00;93.80;;;;;;4908030;29;20036;-69
2022/05/04 00:45:17;;;;;;;28.20;17.65;;;10.90;93.90;;;;;;4906644;29;20032;-70
2022/05/04 00:47:43;;;;;;;31.63;18.15;;;10.90;94.00;;;;;;4908204;29;20050;-70
2022/05/04 00:50:10;;;;;;;37.05;19.92;;;10.80;93.80;;;;;;4904463;29;20036;-69
2022/05/04 00:52:37;;;;;;;37.95;21.58;;;10.80;93.80;;;;;;4907553;29;20417;-70
2022/05/04 00:55:07;;;;;;;36.33;19.15;;;10.70;94.00;;;;;;4892329;29;20368;-70
2022/05/04 01:00:21;;;;;;;36.22;20.65;;;10.80;94.30;;;;;;4907451;29;20071;-70
2022/05/04 01:02:46;;;;;;;30.67;17.95;;;10.80;94.60;;;;;;4906322;29;20158;-70
2022/05/04 01:05:12;;;;;;;36.90;19.35;;;10.80;94.80;;;;;;4905039;29;20040;-70
2022/05/04 01:07:43;;;;;;;32.55;18.88;;;10.80;94.40;;;;;;4907519;29;20043;-70
2022/05/04 01:10:11;;;;;;;42.33;19.40;;;10.70;94.40;;;;;;4907460;29;20020;-70
2022/05/04 01:12:48;;;;;;;32.08;18.30;;;10.70;94.40;;;;;;4905294;29;20036;-69
2022/05/04 01:15:14;;;;;;;35.67;19.30;;;10.60;94.40;;;;;;4906515;29;20028;-70
2022/05/04 01:17:39;;;;;;;38.00;21.20;;;10.60;94.20;;;;;;4906694;29;20068;-69
2022/05/04 01:20:06;;;;;;;40.88;20.45;;;10.60;94.30;;;;;;4906113;29;20039;-69
2022/05/04 01:22:32;;;;;;;38.15;22.52;;;10.50;94.50;;;;;;4905621;29;20076;-70
2022/05/04 01:24:57;;;;;;;35.38;20.58;;;10.40;94.60;;;;;;4906089;29;20032;-69
2022/05/04 01:27:26;;;;;;;38.35;21.00;;;10.40;94.70;;;;;;4905913;29;20846;-69
2022/05/04 01:29:51;;;;;;;40.97;21.63;;;10.30;94.70;;;;;;4905935;29;20091;-69
2022/05/04 01:32:17;;;;;;;40.28;21.02;;;10.30;94.90;;;;;;4895809;29;20047;-69
2022/05/04 01:34:42;;;;;;;32.95;19.85;;;10.30;94.90;;;;;;4906018;29;20508;-69
2022/05/04 01:37:08;;;;;;;35.55;19.42;;;10.30;94.90;;;;;;4905009;29;20040;-69
2022/05/04 01:39:34;;;;;;;36.15;19.02;;;10.30;94.90;;;;;;4902666;29;20067;-69
2022/05/04 01:42:03;;;;;;;42.67;21.92;;;10.30;94.90;;;;;;4894124;29;20039;-69
2022/05/04 01:44:35;;;;;;;41.75;21.65;;;10.40;94.90;;;;;;4921481;29;20656;-69
2022/05/04 01:47:01;;;;;;;39.58;23.08;;;10.30;94.80;;;;;;4905163;29;20042;-69
2022/05/04 01:49:27;;;;;;;38.80;22.63;;;10.30;95.00;;;;;;4907186;29;20039;-69
2022/05/04 01:51:53;;;;;;;41.38;21.70;;;10.20;95.20;;;;;;4893750;29;20032;-69
2022/05/04 01:54:19;;;;;;;46.13;22.35;;;10.20;95.20;;;;;;4906239;29;20431;-69
2022/05/04 01:56:45;;;;;;;43.58;22.48;;;10.20;95.30;;;;;;4903634;29;20020;-69
2022/05/04 01:59:11;;;;;;;41.65;20.88;;;10.20;95.30;;;;;;4905037;29;20047;-69
2022/05/04 02:01:40;;;;;;;38.67;21.30;;;10.30;95.20;;;;;;4895157;29;20087;-69
2022/05/04 02:04:06;;;;;;;44.35;24.55;;;10.20;95.10;;;;;;4896389;29;20082;-70
2022/05/04 02:06:32;;;;;;;53.05;25.65;;;10.20;95.10;;;;;;4887232;29;20096;-69
2022/05/04 02:08:58;;;;;;;44.28;24.85;;;10.20;95.20;;;;;;4904142;29;20028;-69
2022/05/04 02:11:24;;;;;;;54.35;27.10;;;10.20;95.20;;;;;;4904849;29;20563;-69
2022/05/04 02:13:51;;;;;;;45.42;25.27;;;10.10;95.20;;;;;;4898556;29;20193;-70
2022/05/04 02:16:17;;;;;;;51.25;27.70;;;10.20;95.20;;;;;;4886348;29;20056;-69
2022/05/04 02:18:42;;;;;;;48.33;27.58;;;10.10;95.20;;;;;;4900133;29;20069;-70
2022/05/04 02:21:09;;;;;;;50.70;25.45;;;10.10;95.20;;;;;;4904116;29;20474;-69
2022/05/04 02:23:35;;;;;;;52.22;27.75;;;10.10;95.20;;;;;;4903902;29;20028;-69
2022/05/04 02:26:02;;;;;;;52.00;26.20;;;10.00;95.30;;;;;;4904634;29;20044;-70
2022/05/04 02:28:27;;;;;;;54.58;26.85;;;10.00;95.50;;;;;;4902033;29;20032;-70
2022/05/04 02:30:53;;;;;;;55.65;29.45;;;10.00;95.50;;;;;;4897423;29;20381;-69
2022/05/04 02:33:18;;;;;;;54.45;29.55;;;10.00;95.60;;;;;;4898405;29;20032;-70
2022/05/04 02:38:28;;;;;;;63.97;30.80;;;9.90;95.50;;;;;;4903268;29;20075;-69
2022/05/04 02:40:54;;;;;;;63.90;30.50;;;9.90;95.50;;;;;;4905636;29;20040;-69
2022/05/04 02:43:20;;;;;;;53.40;28.77;;;10.00;95.60;;;;;;4904686;29;20464;-70
2022/05/04 02:45:45;;;;;;;54.95;27.83;;;10.00;95.60;;;;;;4905121;29;20046;-70
2022/05/04 02:48:12;;;;;;;57.60;27.55;;;9.90;95.50;;;;;;4901228;29;20511;-69
2022/05/04 02:50:37;;;;;;;56.63;29.38;;;9.90;95.80;;;;;;4904806;29;20040;-69
2022/05/04 02:53:06;;;;;;;61.83;29.52;;;9.90;95.70;;;;;;4903488;29;20400;-70
2022/05/04 02:55:32;;;;;;;56.67;28.90;;;9.90;95.70;;;;;;4920093;29;20032;-69
2022/05/04 02:57:58;;;;;;;54.08;28.05;;;9.90;95.70;;;;;;4905440;29;20039;-69
2022/05/04 03:00:25;;;;;;;57.30;27.63;;;9.80;95.70;;;;;;4905513;29;20171;-70
2022/05/04 03:02:50;;;;;;;63.08;28.13;;;9.80;95.70;;;;;;4901553;29;20316;-69
2022/05/04 03:05:17;;;;;;;58.90;29.23;;;9.80;95.90;;;;;;4894709;29;20418;-69
2022/05/04 03:07:43;;;;;;;58.72;28.27;;;9.70;96.00;;;;;;4897665;29;20058;-69
2022/05/04 03:10:10;;;;;;;60.75;30.77;;;9.70;96.10;;;;;;4905389;29;20484;-69
2022/05/04 03:12:36;;;;;;;55.70;28.52;;;9.70;96.20;;;;;;4904690;29;20087;-69
2022/05/04 03:15:03;;;;;;;52.22;28.95;;;9.60;96.30;;;;;;4904897;29;20463;-70
2022/05/04 03:17:29;;;;;;;56.75;28.73;;;9.60;96.20;;;;;;4916780;29;20573;-69
2022/05/04 03:19:54;;;;;;;59.78;28.75;;;9.60;96.30;;;;;;4905413;29;20067;-69
2022/05/04 03:22:20;;;;;;;60.95;28.65;;;9.50;96.40;;;;;;4899637;29;20039;-69
2022/05/04 03:24:46;;;;;;;59.58;30.98;;;9.50;96.40;;;;;;4905076;29;20039;-70
2022/05/04 03:27:12;;;;;;;62.47;32.17;;;9.50;96.50;;;;;;4903707;29;20040;-69
2022/05/04 03:29:37;;;;;;;65.10;31.73;;;9.50;96.60;;;;;;4903170;29;20028;-69
2022/05/04 03:32:03;;;;;;;62.67;31.75;;;9.50;96.70;;;;;;4903656;29;20036;-70
2022/05/04 03:34:30;;;;;;;59.65;30.67;;;9.50;96.60;;;;;;4904641;29;20510;-69
2022/05/04 03:36:58;;;;;;;69.50;32.95;;;9.40;96.60;;;;;;4904219;29;20032;-69
2022/05/04 03:39:24;;;;;;;82.03;36.95;;;9.40;96.60;;;;;;4908433;29;20072;-70
2022/05/04 03:41:49;;;;;;;69.50;31.88;;;9.40;96.60;;;;;;4890408;29;20130;-69
2022/05/04 03:44:16;;;;;;;70.32;34.75;;;9.50;96.80;;;;;;4905474;29;20036;-69
2022/05/04 03:46:47;;;;;;;71.75;34.67;;;9.50;96.70;;;;;;4903486;29;20032;-69
2022/05/04 03:49:14;;;;;;;74.35;35.38;;;9.60;96.70;;;;;;4905482;29;20036;-69
2022/05/04 03:51:40;;;;;;;63.28;33.80;;;9.60;96.60;;;;;;4902689;29;20040;-69
2022/05/04 03:54:06;;;;;;;73.28;35.65;;;9.70;96.60;;;;;;4904671;29;20036;-70
2022/05/04 03:56:33;;;;;;;66.82;34.10;;;9.70;96.50;;;;;;4903352;29;20099;-69
2022/05/04 03:58:59;;;;;;;73.80;38.30;;;9.70;96.40;;;;;;4908125;29;20033;-70
2022/05/04 04:01:24;;;;;;;72.45;40.10;;;9.80;96.30;;;;;;4906384;29;20538;-69
2022/05/04 04:03:50;;;;;;;68.50;38.60;;;9.80;96.10;;;;;;4907771;29;20035;-69
2022/05/04 04:06:15;;;;;;;78.13;41.95;;;9.80;96.10;;;;;;4907872;29;20056;-70
2022/05/04 04:08:41;;;;;;;75.63;42.80;;;9.90;95.90;;;;;;4906979;29;20476;-69
2022/05/04 04:11:07;;;;;;;71.57;40.10;;;9.80;96.00;;;;;;4907957;29;20107;-69
2022/05/04 04:13:33;;;;;;;77.10;43.47;;;9.80;96.00;;;;;;4897351;29;20100;-69
2022/05/04 04:15:58;;;;;;;70.15;39.83;;;9.70;95.90;;;;;;4893672;29;20067;-69
2022/05/04 04:18:26;;;;;;;72.10;41.63;;;9.70;96.00;;;;;;4920766;29;20032;-69
2022/05/04 04:23:36;;;;;;;68.80;40.05;;;9.70;96.20;;;;;;4905867;29;20047;-70
2022/05/04 04:26:04;;;;;;;68.20;41.58;;;9.70;95.90;;;;;;4906869;29;20036;-69
2022/05/04 04:28:31;;;;;;;73.90;42.55;;;9.70;96.00;;;;;;4908762;29;20035;-69
2022/05/04 04:30:56;;;;;;;71.72;42.00;;;9.70;96.00;;;;;;4902735;29;20040;-69
2022/05/04 04:33:26;;;;;;;69.28;40.40;;;9.70;96.00;;;;;;4906929;29;20036;-70
2022/05/04 04:35:55;;;;;;;64.93;41.03;;;9.70;95.90;;;;;;4905454;29;20445;-70
2022/05/04 04:38:21;;;;;;;66.78;40.90;;;9.70;96.00;;;;;;4905982;29;20028;-69
2022/05/04 04:40:47;;;;;;;70.40;41.38;;;9.70;96.00;;;;;;4906667;29;20195;-69
2022/05/04 04:43:13;;;;;;;61.30;37.47;;;9.70;96.00;;;;;;4906730;29;20552;-69
2022/05/04 04:45:39;;;;;;;64.93;38.72;;;9.80;96.00;;;;;;4906376;29;20104;-70
2022/05/04 04:48:05;;;;;;;66.20;38.10;;;9.80;95.90;;;;;;4906489;29;20040;-69
2022/05/04 04:50:31;;;;;;;60.38;35.08;;;9.80;95.80;;;;;;4905920;29;20583;-70
2022/05/04 04:52:56;;;;;;;66.50;35.20;;;9.80;95.80;;;;;;4906251;29;20036;-70
2022/05/04 04:55:22;;;;;;;55.85;31.33;;;9.90;96.00;;;;;;4906223;29;20066;-70
2022/05/04 04:57:47;;;;;;;53.10;31.65;;;9.90;95.80;;;;;;4903457;29;20032;-69
2022/05/04 05:00:14;;;;;;;57.22;31.60;;;9.90;95.90;;;;;;4900378;29;20028;-70
2022/05/04 05:02:40;;;;;;;51.63;31.85;;;9.90;95.90;;;;;;4903391;29;20058;-69
2022/05/04 05:05:07;;;;;;;61.13;33.90;;;9.90;95.90;;;;;;4902238;29;20488;-70
2022/05/04 05:07:32;;;;;;;64.97;35.53;;;9.90;95.70;;;;;;4904606;29;20028;-70
2022/05/04 05:09:58;;;;;;;57.47;32.35;;;9.80;95.80;;;;;;4906008;29;20403;-70
2022/05/04 05:12:23;;;;;;;61.67;33.10;;;9.80;95.90;;;;;;4907203;29;20365;-70
2022/05/04 05:17:34;;;;;;;61.83;30.95;;;9.80;95.90;;;;;;4906194;29;20042;-69
2022/05/04 05:20:00;;;;;;;56.72;29.50;;;9.80;95.90;;;;;;4906623;29;20043;-69
2022/05/04 05:22:26;;;;;;;56.97;30.80;;;9.80;95.90;;;;;;4904326;29;20220;-69
2022/05/04 05:24:52;;;;;;;59.08;32.15;;;9.80;96.00;;;;;;4906800;29;20620;-70
2022/05/04 05:27:17;;;;;;;59.53;30.45;;;9.90;96.10;;;;;;4904894;29;20502;-70
2022/05/04 05:29:43;;;;;;;57.97;30.38;;;9.90;96.10;;;;;;4906829;29;20020;-69
2022/05/04 05:32:08;;;;;;;55.42;29.52;;;9.90;96.00;;;;;;4905632;29;20099;-70
2022/05/04 05:34:35;;;;;;;55.92;30.15;;;10.00;96.10;;;;;;4907615;29;20032;-70
2022/05/04 05:37:01;;;;;;;54.33;30.70;;;10.00;96.20;;;;;;4903769;29;20043;-70
2022/05/04 05:39:27;;;;;;;58.78;30.02;;;10.10;96.10;;;;;;4905785;29;20075;-70
2022/05/04 05:41:53;;;;;;;57.28;29.05;;;10.20;95.80;;;;;;4902945;29;20085;-69
2022/05/04 05:44:18;;;;;;;51.83;28.73;;;10.20;95.60;;;;;;4905677;29;20064;-70
2022/05/04 05:46:44;;;;;;;60.83;29.05;;;10.30;95.50;;;;;;4905007;29;20119;-69
2022/05/04 05:49:10;;;;;;;53.67;29.23;;;10.30;95.40;;;;;;4906124;29;20024;-70
2022/05/04 05:51:35;;;;;;;56.78;28.80;;;10.40;95.50;;;;;;4904358;29;20067;-70
2022/05/04 05:54:01;;;;;;;49.17;27.63;;;10.50;95.30;;;;;;4904197;29;20303;-70
2022/05/04 05:56:27;;;;;;;55.53;29.20;;;10.60;95.10;;;;;;4905270;29;20366;-70
2022/05/04 05:58:52;;;;;;;52.63;29.08;;;10.70;95.20;;;;;;4905930;29;20243;-70
2022/05/04 06:01:18;;;;;;;59.53;31.13;;;10.70;95.00;;;;;;4904462;29;20055;-70
2022/05/04 06:03:44;;;;;;;54.25;30.33;;;10.80;94.80;;;;;;4904359;29;20036;-70
2022/05/04 06:06:09;;;;;;;51.05;30.02;;;10.90;94.60;;;;;;4905010;29;20529;-70
2022/05/04 06:08:35;;;;;;;53.42;30.88;;;11.00;94.50;;;;;;4905236;29;20067;-70
2022/05/04 06:11:01;;;;;;;52.60;29.45;;;11.10;94.20;;;;;;4903509;29;20040;-70
2022/05/04 06:13:27;;;;;;;56.50;32.65;;;11.30;94.40;;;;;;4904362;29;20035;-70
2022/05/04 06:15:52;;;;;;;54.85;31.55;;;11.30;94.00;;;;;;4904456;29;20028;-70
2022/05/04 06:18:18;;;;;;;61.00;32.50;;;11.40;94.10;;;;;;4903509;29;20459;-70
2022/05/04 06:20:43;;;;;;;57.53;32.00;;;11.50;93.60;;;;;;4917596;29;20032;-70
2022/05/04 06:23:09;;;;;;;54.10;31.50;;;11.50;93.50;;;;;;4906072;29;20040;-70
2022/05/04 06:25:35;;;;;;;60.30;32.97;;;11.40;93.40;;;;;;4902142;29;20038;-70
2022/05/04 06:28:01;;;;;;;54.35;32.67;;;11.50;93.30;;;;;;4905632;29;20036;-71
2022/05/04 06:35:56;;;;;;;61.83;33.65;;;11.50;93.30;;;;;;4905197;29;20051;-70
2022/05/04 06:38:21;;;;;;;55.80;32.60;;;11.60;93.40;;;;;;4905849;29;20036;-70
2022/05/04 06:40:47;;;;;;;57.45;31.73;;;11.60;93.60;;;;;;4902270;29;20115;-70
2022/05/04 06:43:12;;;;;;;63.80;32.58;;;11.60;93.40;;;;;;4902160;29;20032;-70
2022/05/04 06:45:38;;;;;;;59.88;32.55;;;11.60;93.40;;;;;;4903109;29;20138;-70
2022/05/04 06:48:04;;;;;;;61.53;33.60;;;11.60;93.50;;;;;;4902760;29;20041;-70
2022/05/04 06:50:30;;;;;;;58.65;32.30;;;11.70;93.80;;;;;;4903387;29;20035;-70
2022/05/04 06:52:56;;;;;;;54.33;31.42;;;11.80;93.80;;;;;;4901804;29;20032;-71
2022/05/04 06:55:22;;;;;;;51.85;30.73;;;11.90;93.10;;;;;;4901099;29;20040;-70
2022/05/04 06:57:47;;;;;;;50.45;29.55;;;11.90;93.40;;;;;;4901699;29;20033;-70
2022/05/04 07:00:13;;;;;;;55.45;29.75;;;12.10;93.60;;;;;;4893860;29;20040;-70
2022/05/04 07:02:40;;;;;;;46.53;28.30;;;12.10;93.00;;;;;;4895862;29;20151;-70
2022/05/04 07:05:06;;;;;;;53.45;30.13;;;12.20;93.00;;;;;;4895413;29;20055;-70
2022/05/04 07:07:33;;;;;;;49.83;29.73;;;12.30;93.20;;;;;;4902450;29;20223;-71
2022/05/04 07:09:59;;;;;;;48.83;27.40;;;12.40;93.20;;;;;;4903510;29;20087;-71
2022/05/04 07:12:25;;;;;;;46.17;27.23;;;12.50;93.00;;;;;;4902832;29;20036;-70
2022/05/04 07:14:56;;;;;;;39.25;24.08;;;12.70;92.80;;;;;;4899430;29;20050;-70
2022/05/04 07:17:25;;;;;;;41.70;23.93;;;12.80;91.70;;;;;;4896347;29;20055;-71
2022/05/04 07:19:51;;;;;;;41.33;24.00;;;12.90;91.00;;;;;;4902446;29;20111;-71
2022/05/04 07:22:17;;;;;;;39.33;24.95;;;12.90;91.60;;;;;;4898232;29;20139;-71
2022/05/04 07:24:43;;;;;;;33.40;21.13;;;13.10;91.50;;;;;;4898034;29;20123;-71
2022/05/04 07:27:08;;;;;;;38.10;23.27;;;13.10;89.90;;;;;;4900632;29;20400;-70
2022/05/04 07:29:34;;;;;;;35.60;22.02;;;13.20;90.90;;;;;;4896769;29;20024;-70
2022/05/04 07:32:01;;;;;;;36.47;20.70;;;13.30;90.60;;;;;;4891974;29;20039;-70
2022/05/04 07:34:26;;;;;;;37.67;21.45;;;13.20;89.40;;;;;;4896687;29;20054;-70
2022/05/04 07:36:52;;;;;;;36.50;21.15;;;13.30;90.50;;;;;;4902269;29;20567;-71
2022/05/04 07:44:47;;;;;;;37.08;18.75;;;13.40;89.30;;;;;;4892484;29;20040;-71
2022/05/04 07:47:13;;;;;;;31.40;19.10;;;13.50;87.30;;;;;;4892745;29;20044;-71
2022/05/04 07:49:38;;;;;;;31.25;19.08;;;13.50;87.60;;;;;;4905759;29;20039;-70
2022/05/04 07:52:04;;;;;;;35.88;19.80;;;13.50;89.00;;;;;;4905586;29;20542;-71
2022/05/04 07:54:30;;;;;;;33.10;19.98;;;13.50;89.40;;;;;;4905528;29;20040;-70
2022/05/04 07:56:56;;;;;;;33.78;19.60;;;13.50;89.40;;;;;;4901508;29;20031;-71
2022/05/04 07:59:21;;;;;;;39.08;20.10;;;13.40;88.80;;;;;;4904257;29;20024;-71
2022/05/04 08:04:33;;;;;;;34.28;19.75;;;13.30;88.80;;;;;;4905652;29;20460;-71
2022/05/04 08:06:58;;;;;;;31.70;19.23;;;13.20;90.00;;;;;;4902145;29;20032;-71
2022/05/04 08:09:24;;;;;;;35.13;21.70;;;13.20;90.70;;;;;;4906341;29;20034;-72
2022/05/04 08:11:50;;;;;;;32.97;19.08;;;13.30;91.20;;;;;;4902723;29;20028;-71
2022/05/04 08:14:16;;;;;;;38.97;22.67;;;13.50;90.40;;;;;;4913075;29;20036;-71
2022/05/04 08:16:42;;;;;;;35.75;21.55;;;13.70;90.80;;;;;;4906817;29;20034;-70
2022/05/04 08:19:08;;;;;;;37.30;22.38;;;13.90;90.10;;;;;;4907035;29;20524;-71
2022/05/04 08:21:34;;;;;;;38.33;21.08;;;14.20;87.60;;;;;;4905837;29;20479;-71
2022/05/04 08:24:00;;;;;;;34.85;20.83;;;14.50;86.60;;;;;;4905530;29;20074;-72
2022/05/04 08:26:26;;;;;;;34.63;21.38;;;14.70;83.60;;;;;;4907029;29;20028;-71
2022/05/04 08:28:53;;;;;;;38.92;21.35;;;15.00;84.10;;;;;;4904694;29;20587;-71
2022/05/04 08:31:21;;;;;;;34.22;21.98;;;15.30;83.30;;;;;;4905873;29;20500;-71
2022/05/04 08:33:48;;;;;;;35.40;21.50;;;15.80;81.40;;;;;;4895441;29;20521;-71
2022/05/04 08:36:13;;;;;;;37.78;23.00;;;16.20;79.40;;;;;;4897748;29;20254;-71
2022/05/04 08:38:39;;;;;;;37.45;22.17;;;16.90;76.50;;;;;;4896146;29;20044;-71
2022/05/04 08:41:06;;;;;;;33.67;21.02;;;17.60;76.70;;;;;;4894450;29;20566;-71
2022/05/04 08:43:32;;;;;;;35.92;21.20;;;18.10;73.20;;;;;;4894692;29;20044;-71
2022/05/04 08:46:00;;;;;;;39.00;22.75;;;18.50;71.30;;;;;;4898084;29;20532;-72
2022/05/04 08:48:26;;;;;;;37.13;23.52;;;19.50;70.80;;;;;;4899249;29;20555;-71
2022/05/04 08:50:54;;;;;;;33.72;21.35;;;19.80;66.70;;;;;;4886650;29;20028;-71
2022/05/04 08:53:20;;;;;;;33.10;20.92;;;20.20;66.50;;;;;;4896225;29;20068;-71
2022/05/04 08:55:47;;;;;;;34.70;23.05;;;21.10;63.80;;;;;;4901387;29;20024;-71
2022/05/04 08:58:13;;;;;;;36.25;23.90;;;21.70;63.50;;;;;;4920514;29;20511;-71
2022/05/04 09:00:38;;;;;;;35.03;23.98;;;21.00;61.40;;;;;;4909436;29;20055;-71
2022/05/04 09:03:07;;;;;;;34.20;22.30;;;20.90;63.90;;;;;;4896508;29;20036;-72
2022/05/04 09:05:40;;;;;;;37.47;24.60;;;21.20;60.40;;;;;;4901312;29;20423;-71
2022/05/04 09:08:07;;;;;;;37.75;24.70;;;21.30;61.10;;;;;;4906949;29;20040;-71
2022/05/04 09:10:37;;;;;;;35.90;24.52;;;21.50;60.50;;;;;;4901095;29;20035;-71
2022/05/04 09:13:03;;;;;;;35.00;22.58;;;22.00;60.10;;;;;;4897839;29;20119;-70
2022/05/04 09:15:38;;;;;;;36.20;24.10;;;21.60;57.60;;;;;;4903468;29;20036;-72
2022/05/04 09:18:16;;;;;;;36.40;23.75;;;21.00;60.00;;;;;;4894524;29;20491;-71
2022/05/04 09:20:47;;;;;;;35.05;23.00;;;20.90;62.40;;;;;;4894756;29;20064;-72
2022/05/04 09:23:33;;;;;;;39.63;24.02;;;20.70;62.30;;;;;;4897335;29;20043;-73
2022/05/04 09:26:01;;;;;;;32.28;23.05;;;20.80;64.10;;;;;;4895345;29;20044;-71
2022/05/04 09:28:28;;;;;;;33.55;22.63;;;21.30;62.60;;;;;;4890698;29;20039;-71
2022/05/04 09:30:59;;;;;;;32.42;23.27;;;21.80;60.50;;;;;;4904736;29;20119;-71
2022/05/04 09:33:27;;;;;;;33.40;23.10;;;22.10;56.70;;;;;;4903274;29;20032;-71
2022/05/04 09:35:54;;;;;;;32.00;21.98;;;22.30;57.20;;;;;;4898558;29;20459;-72
2022/05/04 09:46:47;;;;;;;36.20;22.63;;;22.60;55.50;;;;;;4894978;29;20047;-72
2022/05/04 09:49:27;;;;;;;33.10;23.15;;;22.20;58.80;;;;;;4895389;29;20028;-72
2022/05/04 09:51:54;;;;;;;34.10;21.42;;;21.90;58.30;;;;;;4891544;29;20091;-71
2022/05/04 09:54:25;;;;;;;34.63;22.75;;;20.90;57.40;;;;;;4916557;29;20066;-74
2022/05/04 09:56:56;;;;;;;33.05;23.02;;;20.40;60.90;;;;;;4905700;29;20196;-72
2022/05/04 09:59:25;;;;;;;32.20;22.20;;;20.10;62.30;;;;;;4893758;29;20288;-71
2022/05/04 10:01:51;;;;;;;35.67;22.70;;;20.10;64.00;;;;;;4904369;29;20062;-71
2022/05/04 10:04:18;;;;;;;31.90;21.33;;;20.60;65.00;;;;;;4901299;29;22385;-71
2022/05/04 10:06:44;;;;;;;37.22;22.67;;;20.60;65.10;;;;;;4905622;29;20043;-71
2022/05/04 10:09:11;;;;;;;33.40;21.60;;;20.80;64.20;;;;;;4904708;29;20039;-71
2022/05/04 10:11:37;;;;;;;31.92;22.23;;;20.60;64.00;;;;;;4886563;29;20032;-71
2022/05/04 10:14:05;;;;;;;34.33;23.88;;;20.40;64.00;;;;;;4900750;29;20036;-72
2022/05/04 10:16:51;;;;;;;34.13;21.20;;;19.90;64.10;;;;;;4891486;29;20028;-71
2022/05/04 10:19:30;;;;;;;33.88;23.23;;;19.50;64.80;;;;;;4896660;29;20029;-71
2022/05/04 10:21:58;;;;;;;34.67;23.88;;;19.60;66.60;;;;;;4903253;29;20401;-71
2022/05/04 10:24:28;;;;;;;34.80;22.83;;;19.60;65.90;;;;;;4902097;29;20032;-71
2022/05/04 10:27:02;;;;;;;33.00;22.55;;;19.60;68.90;;;;;;4898651;29;20419;-71
2022/05/04 10:32:33;;;;;;;30.67;19.75;;;19.80;66.70;;;;;;4906058;29;20039;-71
2022/05/04 10:35:17;;;;;;;31.65;21.05;;;20.70;65.10;;;;;;4887265;29;20034;-71
2022/05/04 10:38:10;;;;;;;31.73;21.55;;;21.70;59.90;;;;;;4891583;29;20083;-71
2022/05/04 10:40:56;;;;;;;29.80;20.80;;;21.90;57.50;;;;;;4905903;29;20035;-72
2022/05/04 10:43:38;;;;;;;29.38;19.90;;;22.40;57.40;;;;;;4903891;29;20047;-71
2022/05/04 10:46:16;;;;;;;27.30;20.67;;;22.70;56.90;;;;;;4901524;29;20036;-71
2022/05/04 10:48:58;;;;;;;29.52;20.42;;;22.60;56.60;;;;;;4894173;29;20039;-71
2022/05/04 10:51:28;;;;;;;31.33;20.50;;;22.50;58.20;;;;;;4895126;29;20555;-71
2022/05/04 10:53:58;;;;;;;30.33;20.52;;;23.00;54.70;;;;;;4890159;29;20040;-72
2022/05/04 10:56:26;;;;;;;31.63;20.93;;;23.50;55.20;;;;;;4895554;29;20043;-71
2022/05/04 10:58:52;;;;;;;27.13;19.13;;;23.70;53.00;;;;;;4884283;29;20087;-72
2022/05/04 11:01:23;;;;;;;32.42;21.30;;;23.50;51.30;;;;;;4898727;29;20044;-71
2022/05/04 11:04:07;;;;;;;30.15;21.45;;;23.20;57.10;;;;;;4890488;29;20032;-72
2022/05/04 11:06:36;;;;;;;26.33;18.63;;;22.90;53.40;;;;;;4901010;29;20669;-72
2022/05/04 11:09:10;;;;;;;30.17;20.05;;;22.40;55.50;;;;;;4904591;29;20036;-71
2022/05/04 11:11:37;;;;;;;30.13;19.25;;;22.30;58.20;;;;;;4903161;29;20036;-71
2022/05/04 11:14:04;;;;;;;30.48;21.33;;;22.00;57.80;;;;;;4904512;29;20032;-71
2022/05/04 11:16:30;;;;;;;30.25;20.25;;;21.00;56.60;;;;;;4902495;29;20084;-71
2022/05/04 11:18:58;;;;;;;27.55;19.48;;;20.60;61.60;;;;;;4894291;29;20040;-71
2022/05/04 11:21:27;;;;;;;29.85;20.55;;;19.90;61.80;;;;;;4899677;29;20068;-71
2022/05/04 11:23:55;;;;;;;31.95;20.13;;;19.50;62.90;;;;;;4902877;29;20040;-71
2022/05/04 11:26:24;;;;;;;32.70;21.40;;;19.50;64.90;;;;;;4904121;29;20468;-71
2022/05/04 11:28:52;;;;;;;33.58;21.52;;;19.40;63.60;;;;;;4901365;29;20639;-71
2022/05/04 11:31:19;;;;;;;32.78;21.65;;;19.20;65.50;;;;;;4899826;29;20082;-69
2022/05/04 11:33:47;;;;;;;32.75;21.40;;;19.20;63.70;;;;;;4904193;29;20032;-70
2022/05/04 11:36:16;;;;;;;28.80;19.38;;;19.20;68.00;;;;;;4889777;29;20031;-69
2022/05/04 11:38:44;;;;;;;33.00;21.67;;;19.60;68.10;;;;;;4903502;29;20523;-70
2022/05/04 11:41:11;;;;;;;33.45;21.23;;;19.80;65.90;;;;;;4903689;29;20081;-70
2022/05/04 11:43:37;;;;;;;32.70;21.02;;;19.90;63.40;;;;;;4900223;29;20036;-70
2022/05/04 11:46:09;;;;;;;31.80;20.85;;;20.00;62.40;;;;;;4901082;29;20043;-69
2022/05/04 11:48:36;;;;;;;27.52;19.92;;;19.90;63.80;;;;;;4902201;29;20040;-70
2022/05/04 11:51:02;;;;;;;31.42;20.02;;;20.10;64.50;;;;;;4902424;29;20736;-70
2022/05/04 11:53:29;;;;;;;29.00;19.75;;;20.30;64.30;;;;;;4901518;29;20103;-70
2022/05/04 11:55:59;;;;;;;31.52;21.58;;;20.30;62.60;;;;;;4902547;29;20020;-70
2022/05/04 11:58:28;;;;;;;32.78;20.95;;;20.00;64.70;;;;;;4903157;29;20564;-70
2022/05/04 12:00:54;;;;;;;32.30;21.98;;;19.90;67.00;;;;;;4901594;29;20048;-70
2022/05/04 12:03:21;;;;;;;32.92;21.70;;;19.60;63.30;;;;;;4891420;29;20032;-70
2022/05/04 12:05:48;;;;;;;31.55;22.27;;;19.20;66.30;;;;;;4900328;29;20038;-70
2022/05/04 12:08:17;;;;;;;39.17;25.45;;;18.80;69.10;;;;;;4900712;29;20095;-69
2022/05/04 12:10:43;;;;;;;38.38;23.20;;;18.20;69.50;;;;;;4900866;29;20028;-69
2022/05/04 12:13:08;;;;;;;37.65;23.38;;;17.70;71.30;;;;;;4895196;29;20043;-69
2022/05/04 12:15:37;;;;;;;36.08;24.15;;;17.60;71.30;;;;;;4904217;29;20039;-70
2022/05/04 12:18:05;;;;;;;36.58;23.00;;;17.60;71.90;;;;;;4906320;29;20028;-69
2022/05/04 12:20:33;;;;;;;37.33;22.83;;;17.40;72.30;;;;;;4907416;29;20047;-69
2022/05/04 12:22:59;;;;;;;37.83;23.90;;;17.30;74.30;;;;;;4565318;28;9999977;-69
2022/05/04 12:25:25;;;;;;;42.15;24.40;;;17.20;74.60;;;;;;4917749;29;20032;-69
2022/05/04 12:27:54;;;;;;;39.90;23.70;;;17.50;74.60;;;;;;4890003;29;20060;-69
2022/05/04 12:33:09;;;;;;;33.55;22.58;;;17.80;71.10;;;;;;4889829;29;20046;-70
2022/05/04 12:35:38;;;;;;;38.83;23.33;;;17.90;72.60;;;;;;4889512;29;20036;-70
2022/05/04 12:38:05;;;;;;;38.22;24.45;;;18.10;71.50;;;;;;4905240;29;20508;-69
2022/05/04 12:40:31;;;;;;;33.38;21.05;;;18.10;71.50;;;;;;4908224;29;20040;-69
2022/05/04 12:43:03;;;;;;;34.88;22.83;;;18.10;70.70;;;;;;4904779;29;20051;-69
2022/05/04 12:45:29;;;;;;;34.00;21.92;;;18.30;71.70;;;;;;4903986;29;20020;-69
2022/05/04 12:47:56;;;;;;;32.03;21.02;;;18.30;70.30;;;;;;4906387;29;20032;-69
2022/05/04 12:50:23;;;;;;;30.27;20.48;;;18.70;71.40;;;;;;4904868;29;20177;-68
2022/05/04 12:52:49;;;;;;;34.78;21.35;;;18.90;71.00;;;;;;4902931;29;20032;-70
2022/05/04 12:55:16;;;;;;;31.13;20.10;;;19.00;69.50;;;;;;4905111;29;20036;-69
2022/05/04 12:57:42;;;;;;;32.05;19.75;;;19.00;68.70;;;;;;4905308;29;20036;-70
2022/05/04 13:00:12;;;;;;;33.55;20.42;;;18.80;68.60;;;;;;4901376;29;20396;-69
2022/05/04 13:02:42;;;;;;;29.90;19.67;;;18.60;68.80;;;;;;4904115;29;20032;-70
2022/05/04 13:05:10;;;;;;;32.60;20.00;;;18.60;70.20;;;;;;4902978;29;20115;-69
2022/05/04 13:07:37;;;;;;;32.38;20.30;;;18.40;70.50;;;;;;4902236;29;20252;-70